KFOE

Topeka Regional Airport

Topeka, Kansas, USA
KFOE 231720Z 2318/2418 03008KT P6SM FEW080 FM240000 VRB04KT P6SM SKC
Issued Valid From Valid To
Apr-23 @ 17:20 UTC
(6 hours ago)
Apr-23 @ 18:00 UTC
(5 hours ago)
Apr-24 @ 18:00 UTC
(in 19 hours)
Apr-23 @ 18:00 to Apr-24 @ 00:00
KFOE 231720Z 2318/2418 03008KT P6SM FEW080
Wind Visibility Clouds
30° at 8 knots Greater than 6 miles
  • Few at 8,000' AGL
From Apr-24 @ 00:00 to Apr-24 @ 18:00
FM240000 VRB04KT P6SM SKC
Wind Visibility Clouds
Variable at 4 knots Greater than 6 miles
  • Clear skies
KFOE 231720Z 2318/2418 03008KT P6SM FEW080 FM240000 VRB04KT P6SM SKC
Issued Apr-23 @ 17:20 UTC
(6 hours ago)
Valid From Apr-23 @ 18:00 UTC
(5 hours ago)
Valid To Apr-24 @ 18:00 UTC
(in 19 hours)
Apr-23 @ 18:00 - Apr-24 @ 00:00
Wind Visibility
30° at 8 knots Greater than 6 miles
Clouds
  • Few at 8,000' AGL
From Apr-24 @ 00:00 - Apr-24 @ 18:00
Wind Visibility
Variable at 4 knots Greater than 6 miles
Clouds
  • Clear skies